Time;durP1;ratioP1;P1;durP2;ratioP2;P2;SDS_P1;SDS_P2;PMS_P1;PMS_P2;Temp;Humidity;BMP_temperature;BMP_pressure;BME280_temperature;BME280_humidity;BME280_pressure;Samples;Min_cycle;Max_cycle;Signal;HPM_P1;HPM_P2
2022/07/09 00:00:22;;;;;;;5.90;2.92;;;25.80;53.80;;;;;;5056097;28;20035;-82
2022/07/09 00:02:48;;;;;;;5.88;3.00;;;25.90;53.60;;;;;;5055987;28;20485;-81
2022/07/09 00:05:14;;;;;;;5.13;2.80;;;26.10;53.50;;;;;;5056320;28;20056;-80
2022/07/09 00:07:40;;;;;;;4.70;3.10;;;26.10;53.20;;;;;;5074184;28;20111;-80
2022/07/09 00:10:06;;;;;;;5.50;2.90;;;26.10;53.30;;;;;;5073559;28;20390;-81
2022/07/09 00:12:32;;;;;;;5.38;3.05;;;25.90;53.40;;;;;;5073608;28;20027;-85
2022/07/09 00:14:58;;;;;;;4.82;3.05;;;25.60;54.00;;;;;;5073283;28;20017;-80
2022/07/09 00:17:25;;;;;;;4.53;3.00;;;25.60;54.10;;;;;;5073234;28;20024;-81
2022/07/09 00:19:51;;;;;;;4.78;2.90;;;25.70;54.20;;;;;;5055728;28;20394;-85
2022/07/09 00:22:17;;;;;;;5.10;2.90;;;25.70;54.10;;;;;;5054935;28;20020;-81
2022/07/09 00:24:42;;;;;;;5.10;3.30;;;25.20;54.40;;;;;;5055718;28;20029;-84
2022/07/09 00:27:08;;;;;;;5.22;3.10;;;25.10;55.00;;;;;;5055212;28;20040;-79
2022/07/09 00:29:34;;;;;;;5.55;2.90;;;25.30;54.60;;;;;;5054977;28;20032;-79
2022/07/09 00:31:59;;;;;;;5.18;3.05;;;25.30;54.10;;;;;;5073586;28;20025;-81
2022/07/09 00:34:25;;;;;;;6.15;3.08;;;25.50;54.20;;;;;;5073562;28;20028;-83
2022/07/09 00:36:51;;;;;;;4.97;3.00;;;25.70;53.60;;;;;;5055507;28;20074;-80
2022/07/09 00:39:17;;;;;;;6.97;3.20;;;25.60;53.90;;;;;;5055889;28;20025;-88
2022/07/09 00:41:42;;;;;;;5.03;3.40;;;25.50;53.70;;;;;;5055429;28;20029;-82
2022/07/09 00:44:08;;;;;;;4.95;3.00;;;25.40;53.90;;;;;;5073158;28;20024;-80
2022/07/09 00:46:34;;;;;;;4.70;3.00;;;25.30;53.70;;;;;;5055724;28;20067;-80
2022/07/09 00:49:03;;;;;;;4.65;3.03;;;25.40;53.90;;;;;;5072987;28;20107;-79
2022/07/09 00:51:30;;;;;;;4.68;2.90;;;25.50;53.50;;;;;;5055739;28;20402;-81
2022/07/09 00:53:58;;;;;;;7.90;3.10;;;25.40;53.80;;;;;;5073403;28;20047;-78
2022/07/09 00:56:24;;;;;;;6.47;3.15;;;25.30;53.50;;;;;;5055342;28;20521;-85
2022/07/09 00:58:51;;;;;;;4.15;2.88;;;25.20;53.90;;;;;;5055453;28;20119;-80
2022/07/09 01:01:16;;;;;;;5.65;2.90;;;25.30;53.90;;;;;;5073516;28;20029;-84
2022/07/09 01:03:42;;;;;;;5.82;3.20;;;25.30;53.60;;;;;;5055288;28;20071;-78
2022/07/09 01:06:08;;;;;;;5.93;3.00;;;25.30;53.50;;;;;;5072838;28;20042;-83
2022/07/09 01:08:34;;;;;;;6.50;3.05;;;25.30;53.50;;;;;;5073404;28;20471;-84
2022/07/09 01:11:00;;;;;;;7.25;3.17;;;25.00;53.90;;;;;;5054988;28;20039;-84
2022/07/09 01:13:26;;;;;;;7.43;3.20;;;25.20;53.90;;;;;;5054855;28;20039;-92
2022/07/09 01:15:52;;;;;;;6.70;3.35;;;25.20;53.50;;;;;;5073287;28;20020;-79
2022/07/09 01:18:19;;;;;;;6.90;3.33;;;25.10;53.50;;;;;;5055257;28;20025;-82
2022/07/09 01:20:45;;;;;;;4.40;3.03;;;24.90;54.20;;;;;;5072879;28;20480;-84
2022/07/09 01:23:11;;;;;;;7.25;3.33;;;25.10;53.90;;;;;;5055508;28;20032;-79
2022/07/09 01:25:41;;;;;;;6.38;3.53;;;25.00;53.90;;;;;;5072830;28;20047;-79
2022/07/09 01:28:07;;;;;;;;;;;25.10;53.70;;;;;;5073123;28;20049;-87
2022/07/09 01:30:34;;;;;;;5.50;3.33;;;25.30;53.30;;;;;;5055184;28;20468;-86
2022/07/09 01:33:00;;;;;;;4.47;2.85;;;25.30;53.50;;;;;;5072730;28;20058;-81
2022/07/09 01:35:26;;;;;;;5.68;3.33;;;25.20;53.30;;;;;;5072802;28;20028;-84
2022/07/09 01:37:53;;;;;;;6.30;3.10;;;25.10;53.70;;;;;;5055112;28;20166;-80
2022/07/09 01:40:19;;;;;;;5.30;3.05;;;25.30;53.50;;;;;;5056133;28;20032;-79
2022/07/09 01:42:46;;;;;;;4.50;2.85;;;25.30;53.30;;;;;;5076415;28;20040;-80
2022/07/09 01:45:12;;;;;;;5.03;3.10;;;25.30;53.50;;;;;;5076175;28;20078;-80
2022/07/09 01:47:38;;;;;;;6.80;3.20;;;25.20;53.50;;;;;;5057882;28;20421;-84
2022/07/09 01:50:05;;;;;;;8.07;3.20;;;25.10;53.70;;;;;;5076423;28;20023;-87
2022/07/09 01:52:31;;;;;;;7.78;3.40;;;25.10;53.80;;;;;;5057996;28;20078;-87
2022/07/09 01:54:57;;;;;;;6.50;3.30;;;25.10;53.40;;;;;;5058432;28;20024;-79
2022/07/09 01:57:23;;;;;;;6.15;3.38;;;25.10;54.00;;;;;;5076280;28;20091;-88
2022/07/09 01:59:48;;;;;;;6.25;3.13;;;25.20;53.40;;;;;;5058457;28;20044;-88
2022/07/09 02:02:14;;;;;;;5.40;3.00;;;25.10;53.40;;;;;;5057674;28;20033;-82
2022/07/09 02:04:40;;;;;;;6.10;3.10;;;25.10;53.70;;;;;;5058139;28;20024;-81
2022/07/09 02:07:05;;;;;;;6.88;3.00;;;25.20;53.40;;;;;;5075246;28;20512;-78
2022/07/09 02:09:31;;;;;;;6.03;3.20;;;25.10;53.50;;;;;;5057561;28;20020;-80
2022/07/09 02:11:57;;;;;;;7.63;3.17;;;24.90;53.60;;;;;;5075448;28;20107;-78
2022/07/09 02:14:22;;;;;;;4.65;2.95;;;24.70;53.90;;;;;;5075650;28;20074;-77
2022/07/09 02:16:48;;;;;;;4.93;2.97;;;24.60;54.10;;;;;;5057499;28;20024;-79
2022/07/09 02:19:14;;;;;;;4.78;3.17;;;24.50;54.70;;;;;;5076197;28;20020;-79
2022/07/09 02:21:40;;;;;;;4.43;3.00;;;24.50;54.50;;;;;;5075671;28;20024;-82
2022/07/09 02:24:07;;;;;;;7.78;3.35;;;24.60;54.40;;;;;;5075243;28;20040;-79
2022/07/09 02:26:32;;;;;;;5.50;3.42;;;24.70;54.60;;;;;;5075952;28;20094;-83
2022/07/09 02:28:59;;;;;;;6.15;3.13;;;24.70;54.00;;;;;;5075610;28;20016;-83
2022/07/09 02:31:25;;;;;;;6.97;3.40;;;24.70;53.80;;;;;;5057896;28;20043;-79
2022/07/09 02:33:52;;;;;;;5.78;2.95;;;24.70;53.90;;;;;;5075383;28;20032;-79
2022/07/09 02:36:18;;;;;;;5.28;3.17;;;24.70;54.20;;;;;;5075595;28;20052;-85
2022/07/09 02:38:43;;;;;;;6.15;3.40;;;24.90;53.60;;;;;;5057262;28;20024;-76
2022/07/09 02:41:09;;;;;;;5.95;3.00;;;25.00;53.50;;;;;;5075967;28;20028;-83
2022/07/09 02:43:35;;;;;;;6.20;3.05;;;24.90;53.80;;;;;;5074532;28;20036;-79
2022/07/09 02:46:01;;;;;;;5.95;3.38;;;24.90;53.50;;;;;;5075317;28;20037;-88
2022/07/09 02:48:27;;;;;;;5.57;3.20;;;24.80;53.60;;;;;;5057321;28;20028;-81
2022/07/09 02:50:53;;;;;;;5.38;3.20;;;24.90;53.60;;;;;;5057242;28;20035;-79
2022/07/09 02:53:20;;;;;;;7.50;3.38;;;24.90;53.30;;;;;;5074587;28;20055;-83
2022/07/09 02:55:46;;;;;;;7.90;3.22;;;24.60;54.10;;;;;;5057175;28;20033;-88
2022/07/09 02:58:13;;;;;;;6.03;3.30;;;24.70;54.10;;;;;;5074867;28;20028;-82
2022/07/09 03:00:40;;;;;;;5.53;3.03;;;24.40;54.00;;;;;;5057413;28;20030;-79
2022/07/09 03:03:06;;;;;;;7.95;3.40;;;24.50;54.30;;;;;;5074492;28;20051;-81
2022/07/09 03:05:32;;;;;;;6.68;3.30;;;24.60;54.60;;;;;;5057341;28;20020;-80
2022/07/09 03:07:58;;;;;;;6.13;3.33;;;24.80;53.70;;;;;;5056952;28;20029;-80
2022/07/09 03:10:24;;;;;;;7.35;3.13;;;25.00;53.30;;;;;;5074787;28;20021;-83
2022/07/09 03:12:50;;;;;;;8.27;3.20;;;24.90;53.20;;;;;;5056810;28;20025;-88
2022/07/09 03:15:17;;;;;;;4.88;3.00;;;24.90;53.30;;;;;;5056461;28;20032;-80
2022/07/09 03:17:47;;;;;;;8.05;3.50;;;25.00;53.10;;;;;;5057002;28;20064;-79
2022/07/09 03:20:13;;;;;;;7.70;3.50;;;25.10;53.20;;;;;;5074198;28;20047;-80
2022/07/09 03:22:40;;;;;;;5.72;3.40;;;25.20;52.90;;;;;;5056580;28;20428;-77
2022/07/09 03:25:06;;;;;;;8.52;3.22;;;25.10;53.10;;;;;;5075159;28;20424;-81
2022/07/09 03:27:33;;;;;;;6.03;3.10;;;25.00;53.30;;;;;;5052489;28;20052;-78
2022/07/09 03:29:59;;;;;;;5.50;3.00;;;25.00;53.10;;;;;;5054829;28;20021;-85
2022/07/09 03:32:25;;;;;;;6.78;3.45;;;24.60;53.70;;;;;;5053373;28;20446;-79
2022/07/09 03:34:52;;;;;;;4.72;3.10;;;24.60;54.30;;;;;;5052995;28;20112;-79
2022/07/09 03:37:19;;;;;;;7.65;3.33;;;24.60;54.10;;;;;;5054425;28;20029;-83
2022/07/09 03:39:47;;;;;;;6.13;3.40;;;24.80;53.70;;;;;;5053050;28;20132;-85
2022/07/09 03:42:13;;;;;;;5.95;3.45;;;24.80;53.90;;;;;;5053725;28;20028;-79
2022/07/09 03:44:39;;;;;;;6.90;3.65;;;24.70;53.90;;;;;;5053030;28;20098;-77
2022/07/09 03:47:06;;;;;;;6.78;3.15;;;24.60;53.90;;;;;;5052219;28;20087;-79
2022/07/09 03:49:32;;;;;;;6.13;3.60;;;24.70;53.90;;;;;;5052126;28;20055;-92
2022/07/09 03:51:58;;;;;;;8.23;3.53;;;24.90;53.90;;;;;;5052644;28;20048;-87
2022/07/09 03:54:24;;;;;;;6.05;3.40;;;25.00;53.60;;;;;;5052325;28;20380;-83
2022/07/09 03:56:50;;;;;;;6.68;3.60;;;25.10;53.50;;;;;;5053491;28;20032;-83
2022/07/09 03:59:16;;;;;;;5.70;3.60;;;24.90;53.60;;;;;;5052944;28;20341;-78
2022/07/09 04:01:42;;;;;;;8.13;3.55;;;24.60;54.10;;;;;;5052217;28;20534;-85
2022/07/09 04:04:08;;;;;;;8.23;3.45;;;24.60;54.30;;;;;;5052851;28;20025;-79
2022/07/09 04:06:34;;;;;;;5.35;3.60;;;24.60;54.30;;;;;;5053715;28;20055;-85
2022/07/09 04:09:06;;;;;;;4.88;3.50;;;24.60;54.50;;;;;;5053117;28;20021;-81
2022/07/09 04:11:33;;;;;;;5.72;3.58;;;24.60;54.60;;;;;;5052920;28;20098;-82
2022/07/09 04:14:02;;;;;;;6.18;3.72;;;24.30;54.70;;;;;;5052548;28;20028;-84
2022/07/09 04:16:28;;;;;;;5.90;3.50;;;24.00;55.10;;;;;;5052288;28;20021;-85
2022/07/09 04:18:54;;;;;;;7.47;4.00;;;24.00;55.10;;;;;;5053371;28;20032;-79
2022/07/09 04:21:22;;;;;;;7.18;3.67;;;23.70;55.60;;;;;;5052301;28;20044;-81
2022/07/09 04:23:49;;;;;;;9.48;3.88;;;24.00;55.40;;;;;;5052684;28;20021;-79
2022/07/09 04:26:15;;;;;;;7.72;3.85;;;24.30;55.10;;;;;;5055289;28;20048;-81
2022/07/09 04:28:41;;;;;;;5.00;3.53;;;24.30;54.80;;;;;;5055970;28;20033;-87
2022/07/09 04:31:07;;;;;;;9.27;3.92;;;24.10;55.00;;;;;;5055195;28;20028;-82
2022/07/09 04:33:32;;;;;;;5.45;3.60;;;24.10;55.60;;;;;;5055002;28;20067;-85
2022/07/09 04:35:58;;;;;;;6.47;3.45;;;24.10;55.80;;;;;;5055831;28;20059;-84
2022/07/09 04:38:24;;;;;;;6.88;3.50;;;24.00;55.60;;;;;;5073227;28;20463;-79
2022/07/09 04:40:51;;;;;;;8.15;3.55;;;24.10;55.30;;;;;;5073506;28;20028;-84
2022/07/09 04:43:16;;;;;;;8.48;4.85;;;24.40;54.80;;;;;;5072943;28;20020;-79
2022/07/09 04:45:42;;;;;;;6.13;3.70;;;24.60;54.60;;;;;;5072669;28;20029;-84
2022/07/09 04:48:08;;;;;;;7.07;3.90;;;24.50;54.60;;;;;;5073081;28;20041;-79
2022/07/09 04:50:34;;;;;;;6.22;4.03;;;24.50;54.70;;;;;;5073194;28;20021;-82
2022/07/09 04:52:59;;;;;;;8.63;4.18;;;24.30;55.00;;;;;;5072962;28;20036;-79
2022/07/09 04:55:25;;;;;;;6.32;3.90;;;24.30;54.80;;;;;;5073779;28;20024;-83
2022/07/09 04:57:51;;;;;;;6.53;4.07;;;24.40;55.30;;;;;;5073191;28;20094;-81
2022/07/09 05:00:17;;;;;;;10.23;4.03;;;24.70;54.50;;;;;;5072698;28;20483;-77
2022/07/09 05:02:44;;;;;;;7.97;4.00;;;24.60;54.40;;;;;;5072847;28;20025;-80
2022/07/09 05:05:09;;;;;;;5.82;3.70;;;24.30;55.00;;;;;;5073537;28;20081;-83
2022/07/09 05:07:36;;;;;;;8.35;3.95;;;24.40;54.80;;;;;;5073055;28;20033;-80
2022/07/09 05:10:02;;;;;;;6.53;4.07;;;24.60;54.50;;;;;;5073008;28;20051;-81
2022/07/09 05:12:29;;;;;;;5.10;3.50;;;24.50;54.70;;;;;;5055023;28;20490;-81
2022/07/09 05:14:56;;;;;;;6.90;3.90;;;24.60;54.60;;;;;;5073580;28;20020;-82
2022/07/09 05:17:23;;;;;;;5.60;3.90;;;24.80;54.20;;;;;;5058123;28;20406;-85
2022/07/09 05:19:49;;;;;;;6.53;3.90;;;25.00;54.30;;;;;;5058879;28;20017;-89
2022/07/09 05:22:15;;;;;;;6.63;3.72;;;25.10;53.90;;;;;;5058463;28;20032;-80
2022/07/09 05:24:41;;;;;;;5.93;3.90;;;25.20;54.00;;;;;;5076215;28;20021;-84
2022/07/09 05:27:13;;;;;;;7.70;4.22;;;25.20;53.90;;;;;;5058076;28;20047;-94
2022/07/09 05:29:39;;;;;;;5.78;3.53;;;25.40;53.80;;;;;;5051117;28;20025;-78
2022/07/09 05:32:05;;;;;;;7.13;3.50;;;25.60;53.50;;;;;;5057990;28;20040;-84
2022/07/09 05:34:31;;;;;;;6.95;3.65;;;25.50;53.30;;;;;;5058256;28;20387;-81
2022/07/09 05:36:56;;;;;;;6.25;3.60;;;25.40;53.80;;;;;;5091253;28;20016;-81
2022/07/09 05:39:22;;;;;;;8.85;3.58;;;25.50;53.50;;;;;;5085904;28;20429;-80
2022/07/09 05:41:48;;;;;;;7.45;4.32;;;25.70;53.50;;;;;;5057898;28;20356;-86
2022/07/09 05:44:14;;;;;;;7.18;4.07;;;25.80;53.50;;;;;;5082571;28;20070;-77
2022/07/09 05:46:40;;;;;;;5.82;4.28;;;25.70;53.00;;;;;;5075727;28;20055;-80
2022/07/09 05:49:06;;;;;;;7.75;3.88;;;25.70;53.50;;;;;;5075744;28;20383;-84
2022/07/09 05:51:33;;;;;;;7.47;4.13;;;25.80;53.60;;;;;;5075986;28;20013;-84
2022/07/09 05:53:59;;;;;;;7.57;4.07;;;25.70;53.30;;;;;;5075559;28;20478;-78
2022/07/09 05:56:24;;;;;;;5.55;3.83;;;25.50;53.70;;;;;;5057843;28;20027;-91
2022/07/09 05:58:53;;;;;;;7.13;4.20;;;25.40;53.70;;;;;;5085896;28;20033;-80
2022/07/09 06:01:21;;;;;;;7.13;3.50;;;24.80;54.30;;;;;;5056701;28;20021;-82
2022/07/09 06:03:47;;;;;;;6.55;3.60;;;25.00;55.00;;;;;;5075195;28;20032;-86
2022/07/09 06:06:13;;;;;;;4.70;3.42;;;25.30;54.10;;;;;;5083788;28;20387;-82
2022/07/09 06:08:39;;;;;;;7.97;3.88;;;25.80;54.10;;;;;;5075715;28;20379;-91
2022/07/09 06:11:08;;;;;;;6.53;3.80;;;26.30;53.40;;;;;;5082725;28;20021;-92
2022/07/09 06:13:33;;;;;;;6.18;3.42;;;27.10;52.40;;;;;;5058295;28;20070;-86
2022/07/09 06:15:59;;;;;;;6.25;3.53;;;27.60;52.20;;;;;;5075295;28;20017;-79
2022/07/09 06:18:25;;;;;;;6.85;3.80;;;27.60;51.70;;;;;;5074982;28;20519;-89
2022/07/09 06:20:50;;;;;;;5.32;3.90;;;27.30;52.40;;;;;;5083510;28;20029;-89
2022/07/09 06:23:16;;;;;;;6.70;3.67;;;27.30;52.40;;;;;;5087650;28;20024;-82
2022/07/09 06:25:42;;;;;;;6.78;3.67;;;27.00;52.60;;;;;;5085345;28;20038;-90
2022/07/09 06:28:08;;;;;;;4.75;3.22;;;27.00;53.20;;;;;;4380533;28;10000757;-77
2022/07/09 06:30:33;;;;;;;8.55;3.47;;;27.00;53.00;;;;;;5072600;28;20028;-86
2022/07/09 06:33:00;;;;;;;7.00;3.28;;;26.80;53.10;;;;;;5086682;28;20493;-80
2022/07/09 06:35:30;;;;;;;7.57;3.40;;;26.80;53.20;;;;;;5073185;28;20025;-88
2022/07/09 06:37:57;;;;;;;5.95;3.50;;;26.80;52.40;;;;;;5054537;28;20119;-85
2022/07/09 06:40:22;;;;;;;6.10;3.40;;;26.50;52.70;;;;;;5055104;28;20033;-83
2022/07/09 06:42:48;;;;;;;7.55;3.58;;;26.60;52.40;;;;;;5088464;28;20058;-77
2022/07/09 06:45:14;;;;;;;5.85;3.60;;;26.50;53.50;;;;;;5089431;28;20107;-93
2022/07/09 06:47:43;;;;;;;6.32;3.67;;;26.50;53.10;;;;;;5088868;28;20029;-86
2022/07/09 06:50:09;;;;;;;7.95;3.80;;;26.60;53.10;;;;;;5080299;28;20020;-87
2022/07/09 06:52:35;;;;;;;5.95;3.47;;;26.60;53.20;;;;;;5054286;28;20036;-79
2022/07/09 06:55:00;;;;;;;5.82;3.25;;;26.60;52.40;;;;;;5082347;28;20028;-84
2022/07/09 06:57:28;;;;;;;6.18;3.40;;;26.70;52.80;;;;;;5074224;28;20467;-84
2022/07/09 06:59:54;;;;;;;4.70;3.20;;;26.80;52.30;;;;;;5054786;28;20042;-76
2022/07/09 07:02:20;;;;;;;6.10;3.17;;;26.90;52.10;;;;;;5074977;28;20382;-78
2022/07/09 07:04:45;;;;;;;7.47;3.50;;;27.10;52.70;;;;;;5074542;28;20056;-81
2022/07/09 07:07:11;;;;;;;7.18;3.47;;;27.30;51.90;;;;;;5056884;28;20483;-84
2022/07/09 07:09:37;;;;;;;6.13;3.22;;;27.60;51.90;;;;;;5056489;28;20518;-84
2022/07/09 07:12:04;;;;;;;6.60;3.30;;;27.70;52.30;;;;;;5057541;28;20035;-85
2022/07/09 07:14:29;;;;;;;6.60;3.38;;;27.90;52.00;;;;;;5057753;28;20025;-91
2022/07/09 07:16:55;;;;;;;6.38;3.20;;;28.10;50.90;;;;;;5056913;28;20031;-88
2022/07/09 07:19:21;;;;;;;5.57;3.35;;;27.90;51.30;;;;;;5057163;28;20104;-84
2022/07/09 07:21:48;;;;;;;5.85;3.13;;;28.20;51.30;;;;;;5055906;28;20051;-80
2022/07/09 07:24:14;;;;;;;6.80;3.25;;;28.50;50.60;;;;;;5074803;28;20063;-95
2022/07/09 07:26:39;;;;;;;6.03;3.63;;;28.70;51.00;;;;;;5074204;28;20123;-81
2022/07/09 07:29:05;;;;;;;18.40;3.90;;;28.90;50.60;;;;;;5090032;28;20028;-88
2022/07/09 07:31:31;;;;;;;6.28;3.58;;;28.60;50.20;;;;;;5074886;28;20055;-88
2022/07/09 07:33:59;;;;;;;6.15;3.20;;;28.50;50.60;;;;;;5090126;28;20028;-80
2022/07/09 07:36:26;;;;;;;5.18;3.15;;;28.50;50.70;;;;;;5056848;28;20033;-83
2022/07/09 07:38:52;;;;;;;5.93;3.35;;;28.40;50.00;;;;;;5056506;28;20029;-85
2022/07/09 07:41:18;;;;;;;4.63;2.97;;;28.80;50.80;;;;;;5056590;28;20032;-86
2022/07/09 07:43:45;;;;;;;5.85;3.50;;;28.90;50.60;;;;;;5074675;28;20028;-83
2022/07/09 07:46:11;;;;;;;6.78;3.50;;;29.00;50.40;;;;;;5056752;28;20458;-82
2022/07/09 07:48:37;;;;;;;7.28;3.30;;;29.30;50.80;;;;;;5074162;28;20028;-86
2022/07/09 07:51:04;;;;;;;5.90;3.13;;;29.40;49.10;;;;;;5056778;28;20021;-86
2022/07/09 07:53:33;;;;;;;5.80;3.35;;;29.50;49.70;;;;;;5056779;28;20505;-79
2022/07/09 07:56:00;;;;;;;6.78;3.13;;;29.80;50.20;;;;;;5039888;28;20383;-84
2022/07/09 07:58:26;;;;;;;6.40;3.33;;;29.70;49.80;;;;;;5055753;28;20079;-86
2022/07/09 08:00:52;;;;;;;4.30;3.10;;;29.60;48.50;;;;;;5056324;28;20024;-82
2022/07/09 08:03:18;;;;;;;6.55;3.00;;;30.00;48.80;;;;;;5074123;28;20032;-85
2022/07/09 08:05:44;;;;;;;5.22;3.15;;;30.20;48.10;;;;;;5073770;28;20407;-78
2022/07/09 08:08:09;;;;;;;8.95;3.20;;;30.20;47.20;;;;;;5073909;28;20531;-79
2022/07/09 08:10:35;;;;;;;6.30;3.25;;;30.50;48.60;;;;;;5056148;28;20032;-85
2022/07/09 08:13:01;;;;;;;5.50;2.80;;;30.40;48.00;;;;;;5073903;28;20024;-81
2022/07/09 08:15:26;;;;;;;5.03;2.70;;;30.20;47.60;;;;;;5055776;28;20020;-81
2022/07/09 08:17:55;;;;;;;5.38;3.00;;;30.20;48.30;;;;;;5090314;28;20020;-83
2022/07/09 08:20:20;;;;;;;5.88;2.90;;;30.20;46.70;;;;;;5090518;28;20048;-88
2022/07/09 08:22:49;;;;;;;5.03;3.30;;;30.20;47.80;;;;;;5090425;28;20500;-89
2022/07/09 08:25:15;;;;;;;5.63;3.03;;;30.20;47.50;;;;;;5089369;28;20021;-87
2022/07/09 08:27:41;;;;;;;6.15;3.00;;;30.20;47.20;;;;;;5089785;28;20079;-80
2022/07/09 08:30:07;;;;;;;5.03;2.70;;;30.00;47.50;;;;;;5056033;28;20020;-84
2022/07/09 08:32:33;;;;;;;4.70;2.90;;;30.10;47.80;;;;;;5056116;28;20036;-84
2022/07/09 08:34:59;;;;;;;5.93;2.92;;;30.10;46.90;;;;;;5074598;28;20403;-82
2022/07/09 08:37:25;;;;;;;6.93;3.15;;;30.00;47.40;;;;;;5056256;28;20164;-89
2022/07/09 08:39:51;;;;;;;4.32;2.78;;;29.90;47.40;;;;;;5056753;28;20021;-83
2022/07/09 08:42:19;;;;;;;8.00;2.85;;;30.10;48.00;;;;;;5073702;28;20032;-83
2022/07/09 08:44:47;;;;;;;4.75;2.90;;;30.50;48.10;;;;;;5056403;28;20070;-80
2022/07/09 08:47:15;;;;;;;5.68;2.90;;;30.90;46.70;;;;;;5054785;28;20121;-79
2022/07/09 08:49:42;;;;;;;6.28;3.20;;;31.00;46.20;;;;;;5072642;28;20031;-77
2022/07/09 08:52:08;;;;;;;5.97;2.88;;;31.20;45.90;;;;;;5056480;28;20033;-84
2022/07/09 08:54:39;;;;;;;4.95;2.80;;;31.00;45.80;;;;;;5057266;28;20392;-77
2022/07/09 08:57:06;;;;;;;4.47;2.80;;;31.10;46.80;;;;;;5055454;28;20035;-86
2022/07/09 08:59:32;;;;;;;6.60;3.05;;;31.00;45.80;;;;;;4363767;28;10000733;-88
2022/07/09 09:02:04;;;;;;;10.70;3.03;;;30.70;45.90;;;;;;5075298;28;20028;-81
2022/07/09 09:04:58;;;;;;;7.55;2.75;;;30.60;45.90;;;;;;5074985;28;20110;-88
2022/07/09 09:07:31;;;;;;;11.13;6.15;;;30.60;45.90;;;;;;5075486;28;20546;-85
2022/07/09 09:10:03;;;;;;;7.13;3.03;;;30.90;46.90;;;;;;5067628;28;20039;-86
2022/07/09 09:12:35;;;;;;;6.22;2.67;;;31.40;46.20;;;;;;5073020;28;20025;-83
2022/07/09 09:15:06;;;;;;;6.18;2.75;;;31.30;45.70;;;;;;5055347;28;20490;-82
2022/07/09 09:17:31;;;;;;;9.05;2.97;;;31.10;45.90;;;;;;5073438;28;20096;-76
2022/07/09 09:19:57;;;;;;;6.45;2.97;;;30.60;45.70;;;;;;5072991;28;20032;-82
2022/07/09 09:22:23;;;;;;;11.07;8.82;;;30.40;45.80;;;;;;5054985;28;20445;-83
2022/07/09 09:24:50;;;;;;;7.57;3.95;;;30.60;46.60;;;;;;5055255;28;20036;-77
2022/07/09 09:27:15;;;;;;;6.38;2.65;;;30.90;45.70;;;;;;5073693;28;20128;-82
2022/07/09 09:29:51;;;;;;;4.05;2.38;;;31.00;45.60;;;;;;5055604;28;20112;-77
2022/07/09 09:32:21;;;;;;;6.38;3.10;;;31.50;46.00;;;;;;5055015;28;20502;-87
2022/07/09 09:34:50;;;;;;;10.77;3.47;;;31.50;44.70;;;;;;5073315;28;20154;-84
2022/07/09 09:37:26;;;;;;;9.17;4.13;;;31.50;45.40;;;;;;4703828;28;10000328;-76
2022/07/09 09:39:51;;;;;;;9.43;3.33;;;31.50;45.00;;;;;;5071931;28;20035;-80
2022/07/09 09:42:18;;;;;;;11.18;2.72;;;31.70;45.60;;;;;;5070787;28;20024;-87
2022/07/09 09:44:46;;;;;;;5.07;2.50;;;31.90;45.30;;;;;;5052270;28;20024;-80
2022/07/09 09:47:13;;;;;;;4.38;2.42;;;31.90;44.90;;;;;;5053294;28;20043;-84
2022/07/09 09:49:47;;;;;;;5.57;3.17;;;32.10;44.90;;;;;;5069955;28;20028;-85
2022/07/09 09:52:14;;;;;;;4.88;2.70;;;32.00;44.90;;;;;;5052837;28;20025;-83
2022/07/09 09:54:46;;;;;;;6.00;2.70;;;32.10;44.30;;;;;;5070705;28;20032;-80
2022/07/09 09:57:19;;;;;;;6.18;2.30;;;31.50;44.30;;;;;;5054803;28;20035;-86
2022/07/09 09:59:49;;;;;;;4.53;2.50;;;31.40;44.80;;;;;;5053503;28;20021;-79
2022/07/09 10:02:15;;;;;;;6.65;3.10;;;31.30;44.70;;;;;;5071654;28;20681;-83
2022/07/09 10:04:44;;;;;;;8.98;2.90;;;31.30;45.30;;;;;;5073393;28;20025;-79
2022/07/09 10:07:15;;;;;;;5.88;2.58;;;31.20;44.50;;;;;;5056463;28;20570;-86
2022/07/09 10:09:51;;;;;;;5.10;2.60;;;31.30;45.60;;;;;;5074931;28;20022;-84
2022/07/09 10:12:26;;;;;;;8.85;2.42;;;31.50;44.80;;;;;;5055584;28;20503;-91
2022/07/09 10:14:52;;;;;;;4.95;2.20;;;31.90;45.70;;;;;;5075546;28;20024;-86
2022/07/09 10:17:24;;;;;;;5.55;2.40;;;32.10;44.00;;;;;;5056581;28;20055;-88
2022/07/09 10:19:55;;;;;;;9.88;2.40;;;32.10;43.80;;;;;;5056851;28;20078;-82
2022/07/09 10:22:42;;;;;;;7.00;2.83;;;32.00;43.10;;;;;;5056328;28;20031;-80
2022/07/09 10:25:10;;;;;;;5.65;2.20;;;31.60;43.10;;;;;;5073657;28;20463;-94
2022/07/09 10:27:43;;;;;;;6.32;2.60;;;31.50;44.10;;;;;;5054240;28;20073;-84
2022/07/09 10:30:22;;;;;;;5.10;2.33;;;31.90;43.80;;;;;;5051743;28;20029;-77
2022/07/09 10:33:03;;;;;;;5.45;2.15;;;31.30;42.60;;;;;;5052879;28;20033;-77
2022/07/09 10:35:29;;;;;;;4.10;2.20;;;31.20;42.70;;;;;;5052798;28;20028;-75
2022/07/09 10:37:55;;;;;;;4.30;2.20;;;31.10;42.20;;;;;;5043811;28;20037;-77
2022/07/09 10:40:22;;;;;;;5.97;2.25;;;31.30;43.50;;;;;;5032815;28;20093;-79
2022/07/09 10:43:00;;;;;;;4.93;2.35;;;31.50;42.60;;;;;;5035752;28;20037;-83
2022/07/09 10:45:35;;;;;;;4.90;2.50;;;31.50;41.80;;;;;;5033278;28;20029;-83
2022/07/09 10:48:03;;;;;;;6.18;2.35;;;31.80;43.20;;;;;;5031933;28;20099;-84
2022/07/09 10:50:31;;;;;;;4.63;2.60;;;32.10;42.40;;;;;;5032905;28;20018;-85
2022/07/09 10:52:58;;;;;;;4.43;2.38;;;32.50;42.50;;;;;;5032058;28;20026;-76
2022/07/09 10:55:26;;;;;;;4.55;2.10;;;32.40;41.50;;;;;;5035407;28;20441;-78
2022/07/09 10:57:53;;;;;;;5.53;2.20;;;32.40;41.80;;;;;;5033676;28;20025;-83
2022/07/09 11:00:25;;;;;;;6.15;2.30;;;32.60;41.70;;;;;;5032753;28;20472;-77
2022/07/09 11:03:03;;;;;;;5.47;2.28;;;32.60;40.80;;;;;;5034361;28;20033;-82
2022/07/09 11:05:33;;;;;;;5.63;2.38;;;32.60;40.50;;;;;;5033896;28;20029;-83
2022/07/09 11:08:07;;;;;;;4.35;2.33;;;32.60;41.30;;;;;;5034525;28;20034;-89
2022/07/09 11:10:38;;;;;;;4.50;2.20;;;32.40;41.50;;;;;;5033415;28;20057;-84
2022/07/09 11:13:08;;;;;;;6.00;2.13;;;32.50;41.60;;;;;;5033188;28;20408;-81
2022/07/09 11:15:35;;;;;;;;;;;32.60;42.10;;;;;;5034534;28;20021;-79
2022/07/09 11:18:02;;;;;;;5.50;2.10;;;32.20;41.60;;;;;;5033667;28;19905;-77
2022/07/09 11:20:29;;;;;;;10.30;2.30;;;31.60;42.40;;;;;;5034042;28;20018;-78
2022/07/09 11:23:00;;;;;;;6.40;2.08;;;31.50;42.50;;;;;;5033142;28;20037;-84
2022/07/09 11:25:27;;;;;;;5.22;2.40;;;31.80;41.60;;;;;;5033284;28;20108;-86
2022/07/09 11:27:57;;;;;;;5.03;2.10;;;31.70;42.00;;;;;;5047827;28;20120;-84
2022/07/09 11:30:23;;;;;;;;;;;32.00;42.30;;;;;;5053884;28;20021;-80
2022/07/09 11:32:50;;;;;;;5.03;2.17;;;31.80;41.40;;;;;;5054595;28;19912;-81
2022/07/09 11:35:35;;;;;;;4.88;2.22;;;32.10;42.20;;;;;;5053307;28;20037;-78
2022/07/09 11:38:03;;;;;;;4.80;2.38;;;32.50;41.50;;;;;;5053994;28;20029;-78
2022/07/09 11:40:29;;;;;;;4.95;2.08;;;32.20;41.20;;;;;;5054305;28;20025;-79
2022/07/09 11:42:55;;;;;;;5.72;2.25;;;32.00;41.60;;;;;;5053194;28;20150;-77
2022/07/09 11:45:21;;;;;;;4.50;2.10;;;32.40;42.10;;;;;;5054096;28;20471;-84
2022/07/09 11:47:47;;;;;;;5.05;1.98;;;32.80;41.80;;;;;;5053669;28;20025;-84
2022/07/09 11:50:15;;;;;;;3.97;1.95;;;32.70;41.50;;;;;;5051434;28;20446;-80
2022/07/09 11:52:45;;;;;;;3.65;1.92;;;32.20;41.60;;;;;;5053441;28;20025;-81
2022/07/09 11:55:11;;;;;;;;;;;32.00;41.80;;;;;;5052611;28;20027;-76
2022/07/09 11:57:38;;;;;;;4.28;2.10;;;32.00;42.30;;;;;;5053912;28;19905;-86
2022/07/09 12:00:06;;;;;;;8.48;2.17;;;31.90;42.10;;;;;;5052840;28;20115;-83
2022/07/09 12:02:37;;;;;;;7.30;2.40;;;31.90;41.50;;;;;;5053554;28;20040;-91
2022/07/09 12:05:06;;;;;;;4.45;2.13;;;31.90;42.80;;;;;;5054091;28;20021;-80
2022/07/09 12:07:34;;;;;;;7.65;2.00;;;31.70;42.20;;;;;;5052448;28;20488;-78
2022/07/09 12:10:04;;;;;;;3.83;2.08;;;31.80;42.20;;;;;;5052209;28;20024;-78
2022/07/09 12:12:30;;;;;;;;;;;31.90;42.50;;;;;;5053185;28;20475;-83
2022/07/09 12:14:56;;;;;;;5.28;1.90;;;32.30;42.70;;;;;;5052731;28;19908;-89
2022/07/09 12:17:27;;;;;;;4.40;2.00;;;32.50;42.70;;;;;;5052390;28;20114;-89
2022/07/09 12:19:55;;;;;;;4.80;2.03;;;32.50;41.60;;;;;;5053164;28;20087;-84
2022/07/09 12:22:23;;;;;;;3.08;1.92;;;32.10;42.00;;;;;;5052480;28;20024;-79
2022/07/09 12:24:49;;;;;;;4.50;1.90;;;31.70;41.70;;;;;;5052027;28;20023;-79
2022/07/09 12:27:15;;;;;;;3.80;2.10;;;31.40;41.90;;;;;;5061937;28;20052;-78
2022/07/09 12:29:41;;;;;;;5.25;1.98;;;31.60;42.40;;;;;;5055331;28;20126;-80
2022/07/09 12:32:07;;;;;;;3.60;2.00;;;31.60;42.50;;;;;;5056082;28;20036;-81
2022/07/09 12:34:33;;;;;;;3.72;1.80;;;31.60;42.90;;;;;;5073520;28;20021;-93
2022/07/09 12:36:58;;;;;;;3.75;1.70;;;31.80;43.70;;;;;;5073450;28;20020;-81
2022/07/09 12:39:24;;;;;;;5.13;1.92;;;31.90;42.90;;;;;;5055407;28;20383;-77
2022/07/09 12:41:50;;;;;;;3.15;1.80;;;31.80;42.30;;;;;;5073384;28;20537;-79
2022/07/09 12:44:16;;;;;;;5.90;2.10;;;31.80;42.50;;;;;;5055406;28;20028;-77
2022/07/09 12:46:41;;;;;;;3.50;1.90;;;31.50;42.60;;;;;;5055268;28;20025;-83